createdAt,value
2017-12-22T00:02:30.578Z,7.40
2017-12-22T00:05:04.324Z,7.50
2017-12-22T00:07:38.107Z,7.40
2017-12-22T00:10:13.331Z,7.30
2017-12-22T00:12:47.058Z,7.30
2017-12-22T00:15:20.930Z,7.30
2017-12-22T00:17:54.803Z,7.40
2017-12-22T00:20:28.938Z,7.40
2017-12-22T00:23:02.725Z,7.40
2017-12-22T00:25:36.536Z,7.40
2017-12-22T00:28:10.670Z,7.40
2017-12-22T00:30:44.468Z,7.40
2017-12-22T00:33:19.072Z,7.30
2017-12-22T00:35:52.880Z,7.30
2017-12-22T00:38:27.508Z,7.30
2017-12-22T00:41:01.331Z,7.30
2017-12-22T00:43:35.333Z,7.30
2017-12-22T00:46:09.926Z,7.20
2017-12-22T00:48:44.571Z,7.20
2017-12-22T00:51:18.198Z,7.20
2017-12-22T00:53:52.201Z,7.20
2017-12-22T00:56:26.727Z,7.30
2017-12-22T00:59:00.412Z,7.30
2017-12-22T01:01:34.910Z,7.40
2017-12-22T01:04:09.485Z,7.30
2017-12-22T01:06:43.181Z,7.30
2017-12-22T01:09:18.001Z,7.40
2017-12-22T01:11:52.601Z,7.40
2017-12-22T01:14:26.384Z,7.40
2017-12-22T01:17:06.551Z,7.40
2017-12-22T01:19:40.770Z,7.40
2017-12-22T01:22:14.521Z,7.50
2017-12-22T01:24:49.113Z,7.40
2017-12-22T01:27:23.640Z,7.40
2017-12-22T01:29:58.169Z,7.40
2017-12-22T01:32:33.073Z,7.50
2017-12-22T01:35:06.788Z,7.50
2017-12-22T01:37:40.636Z,7.60
2017-12-22T01:40:15.211Z,7.60
2017-12-22T01:42:48.935Z,7.60
2017-12-22T01:45:23.350Z,7.50
2017-12-22T01:47:57.816Z,7.40
2017-12-22T01:50:31.561Z,7.40
2017-12-22T01:53:05.493Z,7.40
2017-12-22T01:55:39.295Z,7.50
2017-12-22T01:58:13.536Z,7.50
2017-12-22T02:00:47.636Z,7.50
2017-12-22T02:03:21.468Z,7.50
2017-12-22T02:05:56.040Z,7.50
2017-12-22T02:08:29.927Z,7.40
2017-12-22T02:11:03.704Z,7.50
2017-12-22T02:13:38.426Z,7.50
2017-12-22T02:16:12.818Z,7.50
2017-12-22T02:18:46.624Z,7.50
2017-12-22T02:21:20.357Z,7.50
2017-12-22T02:23:54.870Z,7.50
2017-12-22T02:26:28.495Z,7.50
2017-12-22T02:29:02.343Z,7.40
2017-12-22T02:31:36.869Z,7.40
2017-12-22T02:34:11.424Z,7.30
2017-12-22T02:36:46.035Z,7.30
2017-12-22T02:39:20.571Z,7.40
2017-12-22T02:41:54.168Z,7.30
2017-12-22T02:44:28.192Z,7.30
2017-12-22T02:47:01.987Z,7.30
2017-12-22T02:49:36.109Z,7.30
2017-12-22T02:52:09.917Z,7.30
2017-12-22T02:54:43.744Z,7.40
2017-12-22T02:57:17.523Z,7.40
2017-12-22T02:59:51.704Z,7.50
2017-12-22T03:02:25.533Z,7.50
2017-12-22T03:04:59.378Z,7.50
2017-12-22T03:07:33.939Z,7.50
2017-12-22T03:10:08.600Z,7.50
2017-12-22T03:12:43.128Z,7.50
2017-12-22T03:15:16.849Z,7.50
2017-12-22T03:17:50.742Z,7.50
2017-12-22T03:20:24.592Z,7.50
2017-12-22T03:22:58.400Z,7.50
2017-12-22T03:25:32.933Z,7.40
2017-12-22T03:28:06.731Z,7.40
2017-12-22T03:30:41.291Z,7.40
2017-12-22T03:33:15.336Z,7.40
2017-12-22T03:35:50.621Z,7.40
2017-12-22T03:38:25.173Z,7.40
2017-12-22T03:40:59.765Z,7.40
2017-12-22T03:43:33.540Z,7.30
2017-12-22T03:46:08.100Z,7.40
2017-12-22T03:48:43.232Z,7.40
2017-12-22T03:51:17.013Z,7.30
2017-12-22T03:53:51.916Z,7.40
2017-12-22T03:56:26.580Z,7.30
2017-12-22T03:59:00.563Z,7.30
2017-12-22T04:01:34.467Z,7.30
2017-12-22T04:04:09.079Z,7.30
2017-12-22T04:06:42.788Z,7.30
2017-12-22T04:09:16.559Z,7.30
2017-12-22T04:11:50.404Z,7.30
2017-12-22T04:14:24.191Z,7.40
2017-12-22T04:16:58.308Z,7.30
2017-12-22T04:19:32.805Z,7.30
2017-12-22T04:22:06.607Z,7.30
2017-12-22T04:24:41.136Z,7.40
2017-12-22T04:27:14.892Z,7.40
2017-12-22T04:29:48.682Z,7.40
2017-12-22T04:32:22.492Z,7.40
2017-12-22T04:34:56.257Z,7.30
2017-12-22T04:37:30.427Z,7.30
2017-12-22T04:40:04.293Z,7.40
2017-12-22T04:42:38.931Z,7.30
2017-12-22T04:45:12.647Z,7.30
2017-12-22T04:47:47.252Z,7.30
2017-12-22T04:50:20.949Z,7.30
2017-12-22T04:52:54.697Z,7.20
2017-12-22T04:55:29.292Z,7.20
2017-12-22T05:00:52.572Z,7.20
2017-12-22T05:03:26.452Z,7.20
2017-12-22T05:06:00.267Z,7.10
2017-12-22T05:08:34.103Z,7.10
2017-12-22T05:11:07.898Z,7.20
2017-12-22T05:13:41.716Z,7.20
2017-12-22T05:16:15.554Z,7.10
2017-12-22T05:18:50.104Z,7.10
2017-12-22T05:21:23.983Z,7.10
2017-12-22T05:23:58.527Z,7.10
2017-12-22T05:26:32.549Z,7.10
2017-12-22T05:29:06.362Z,7.10
2017-12-22T05:31:40.210Z,7.10
2017-12-22T05:34:14.789Z,7.20
2017-12-22T05:36:48.906Z,7.10
2017-12-22T05:39:22.733Z,7.10
2017-12-22T05:41:57.369Z,7.10
2017-12-22T05:44:31.079Z,7.00
2017-12-22T05:47:06.418Z,7.10
2017-12-22T05:49:41.026Z,7.10
2017-12-22T05:52:14.805Z,7.10
2017-12-22T05:54:48.608Z,7.10
2017-12-22T05:57:23.188Z,7.00
2017-12-22T05:59:56.993Z,7.00
2017-12-22T06:02:30.795Z,7.00
2017-12-22T06:05:04.666Z,7.00
2017-12-22T06:07:38.481Z,7.10
2017-12-22T06:10:12.264Z,7.10
2017-12-22T06:12:46.936Z,7.10
2017-12-22T06:15:20.699Z,7.00
2017-12-22T06:17:54.520Z,7.00
2017-12-22T06:20:28.961Z,7.10
2017-12-22T06:23:02.639Z,7.10
2017-12-22T06:25:36.452Z,7.10
2017-12-22T06:28:10.230Z,7.10
2017-12-22T06:30:44.801Z,7.10
2017-12-22T06:33:19.392Z,7.10
2017-12-22T06:35:53.835Z,7.10
2017-12-22T06:38:27.652Z,7.10
2017-12-22T06:41:01.568Z,7.10
2017-12-22T06:43:35.415Z,7.10
2017-12-22T06:46:10.095Z,7.00
2017-12-22T06:48:43.840Z,7.00
2017-12-22T06:51:18.457Z,7.10
2017-12-22T06:53:52.167Z,7.10
2017-12-22T06:56:25.937Z,7.10
2017-12-22T06:59:00.025Z,7.10
2017-12-22T07:01:33.740Z,7.20
2017-12-22T07:04:08.260Z,7.20
2017-12-22T07:06:42.873Z,7.10
2017-12-22T07:09:16.588Z,7.10
2017-12-22T07:11:51.230Z,7.20
2017-12-22T07:14:25.526Z,7.10
2017-12-22T07:16:59.356Z,7.20
2017-12-22T07:19:33.969Z,7.20
2017-12-22T07:22:07.685Z,7.20
2017-12-22T07:24:42.337Z,7.30
2017-12-22T07:27:16.912Z,7.30
2017-12-22T07:29:50.758Z,7.20
2017-12-22T07:32:24.570Z,7.20
2017-12-22T07:34:58.513Z,7.30
2017-12-22T07:37:32.401Z,7.30
2017-12-22T07:40:06.148Z,7.30
2017-12-22T07:42:40.003Z,7.40
2017-12-22T07:45:14.560Z,7.40
2017-12-22T07:47:48.447Z,7.40
2017-12-22T07:50:22.215Z,7.50
2017-12-22T07:52:55.921Z,7.50
2017-12-22T07:55:29.751Z,7.50
2017-12-22T07:58:04.305Z,7.50
2017-12-22T08:00:38.872Z,7.50
2017-12-22T08:03:12.668Z,7.50
2017-12-22T08:05:46.364Z,7.60
2017-12-22T08:08:20.983Z,7.70
2017-12-22T08:10:54.776Z,7.70
2017-12-22T08:13:28.568Z,7.60
2017-12-22T08:16:03.141Z,7.70
2017-12-22T08:18:36.844Z,7.60
2017-12-22T08:21:10.694Z,7.70
2017-12-22T08:23:45.345Z,7.80
2017-12-22T08:26:19.181Z,7.80
2017-12-22T08:28:53.691Z,7.90
2017-12-22T08:31:28.388Z,7.90
2017-12-22T08:34:02.140Z,7.90
2017-12-22T08:36:36.004Z,8.00
2017-12-22T08:39:09.732Z,8.00
2017-12-22T08:41:44.379Z,8.00
2017-12-22T08:44:18.062Z,8.00
2017-12-22T08:46:52.496Z,8.10
2017-12-22T08:49:26.352Z,8.00
2017-12-22T08:52:00.124Z,8.20
2017-12-22T08:54:34.696Z,8.10
2017-12-22T08:57:08.404Z,8.10
2017-12-22T08:59:42.264Z,8.20
2017-12-22T09:02:15.943Z,8.30
2017-12-22T09:04:50.064Z,8.20
2017-12-22T09:07:23.868Z,8.10
2017-12-22T09:09:57.880Z,8.10
2017-12-22T09:12:31.668Z,8.00
2017-12-22T09:15:05.553Z,8.10
2017-12-22T09:17:39.248Z,8.20
2017-12-22T09:20:13.157Z,8.20
2017-12-22T09:22:47.700Z,8.20
2017-12-22T09:25:21.571Z,8.20
2017-12-22T09:27:56.181Z,8.20
2017-12-22T09:30:30.347Z,8.20
2017-12-22T09:33:05.138Z,8.30
2017-12-22T09:35:39.629Z,8.30
2017-12-22T09:38:13.540Z,8.30
2017-12-22T09:40:48.116Z,8.30
2017-12-22T09:43:21.972Z,8.30
2017-12-22T09:45:56.750Z,8.40
2017-12-22T09:48:30.730Z,8.40
2017-12-22T09:51:06.092Z,8.50
2017-12-22T09:53:40.002Z,8.50
2017-12-22T09:56:14.500Z,8.60
2017-12-22T09:58:48.862Z,8.60
2017-12-22T10:01:22.548Z,8.60
2017-12-22T10:03:56.307Z,8.70
2017-12-22T10:06:30.080Z,8.70
2017-12-22T10:09:03.852Z,8.70
2017-12-22T10:11:38.653Z,8.60
2017-12-22T10:14:12.416Z,8.60
2017-12-22T10:16:47.822Z,8.60
2017-12-22T10:19:22.480Z,8.70
2017-12-22T10:21:56.409Z,8.70
2017-12-22T10:24:30.100Z,8.80
2017-12-22T10:27:03.968Z,8.80
2017-12-22T10:29:38.524Z,8.70
2017-12-22T10:32:12.468Z,8.70
2017-12-22T10:34:46.329Z,8.80
2017-12-22T10:37:20.396Z,8.80
2017-12-22T10:39:54.164Z,8.80
2017-12-22T10:42:27.913Z,8.70
2017-12-22T10:45:01.575Z,8.70
2017-12-22T10:47:36.260Z,8.70
2017-12-22T10:50:09.941Z,8.70
2017-12-22T10:52:43.753Z,8.80
2017-12-22T10:55:17.557Z,8.80
2017-12-22T10:57:51.348Z,8.80
2017-12-22T11:00:28.175Z,8.80
2017-12-22T11:03:02.064Z,8.90
2017-12-22T11:05:35.824Z,8.90
2017-12-22T11:08:10.400Z,9.00
2017-12-22T11:10:44.131Z,8.90
2017-12-22T11:13:18.026Z,8.90
2017-12-22T11:15:51.970Z,8.90
2017-12-22T11:18:25.832Z,8.90
2017-12-22T11:21:00.122Z,9.00
2017-12-22T11:23:33.810Z,9.10
2017-12-22T11:26:07.719Z,9.20
2017-12-22T11:28:41.584Z,9.30
2017-12-22T11:31:15.373Z,9.30
2017-12-22T11:33:49.053Z,9.30
2017-12-22T11:36:23.664Z,9.40
2017-12-22T11:38:58.258Z,9.40
2017-12-22T11:41:32.321Z,9.40
2017-12-22T11:44:06.017Z,9.50
2017-12-22T11:46:40.616Z,9.60
2017-12-22T11:49:14.380Z,9.60
2017-12-22T11:51:48.200Z,9.60
2017-12-22T11:54:21.972Z,9.60
2017-12-22T11:56:55.782Z,9.60
2017-12-22T11:59:30.410Z,9.50
2017-12-22T12:02:04.993Z,9.40
2017-12-22T12:04:38.741Z,9.40
2017-12-22T12:07:12.554Z,9.30
2017-12-22T12:09:46.374Z,9.30
2017-12-22T12:12:20.206Z,9.30
2017-12-22T12:14:54.676Z,9.30
2017-12-22T12:17:28.529Z,9.30
2017-12-22T12:20:02.976Z,9.30
2017-12-22T12:22:37.057Z,9.30
2017-12-22T12:25:10.712Z,9.30
2017-12-22T12:27:44.520Z,9.30
2017-12-22T12:30:18.333Z,9.30
2017-12-22T12:32:52.118Z,9.20
2017-12-22T12:35:25.969Z,9.20
2017-12-22T12:37:59.873Z,9.30
2017-12-22T12:40:33.881Z,9.30
2017-12-22T12:43:08.663Z,9.30
2017-12-22T12:45:42.505Z,9.20
2017-12-22T12:48:16.158Z,9.30
2017-12-22T12:50:50.022Z,9.30
2017-12-22T12:53:23.792Z,9.20
2017-12-22T12:55:57.552Z,9.20
2017-12-22T12:58:31.349Z,9.20
2017-12-22T13:01:05.120Z,9.30
2017-12-22T13:03:39.617Z,9.30
2017-12-22T13:06:14.116Z,9.20
2017-12-22T13:08:47.964Z,9.20
2017-12-22T13:11:21.756Z,9.20
2017-12-22T13:13:55.542Z,9.20
2017-12-22T13:16:30.176Z,9.20
2017-12-22T13:19:04.704Z,9.20
2017-12-22T13:21:39.325Z,9.30
2017-12-22T13:24:13.219Z,9.30
2017-12-22T13:26:47.112Z,9.40
2017-12-22T13:29:20.975Z,9.40
2017-12-22T13:31:54.805Z,9.50
2017-12-22T13:34:29.688Z,9.60
2017-12-22T13:37:03.523Z,9.60
2017-12-22T13:39:37.395Z,9.60
2017-12-22T13:42:11.920Z,9.60
2017-12-22T13:44:46.605Z,9.60
2017-12-22T13:47:20.432Z,9.60
2017-12-22T13:49:58.860Z,9.70
2017-12-22T13:52:33.389Z,9.60
2017-12-22T13:55:07.216Z,9.60
2017-12-22T13:57:41.973Z,9.60
2017-12-22T14:00:15.627Z,9.50
2017-12-22T14:02:50.249Z,9.40
2017-12-22T14:05:25.598Z,9.40
2017-12-22T14:07:59.508Z,9.40
2017-12-22T14:10:33.149Z,9.40
2017-12-22T14:13:06.867Z,9.40
2017-12-22T14:15:40.705Z,9.50
2017-12-22T14:18:15.329Z,9.40
2017-12-22T14:20:49.232Z,9.40
2017-12-22T14:23:22.993Z,9.40
2017-12-22T14:25:57.824Z,9.40
2017-12-22T14:28:32.758Z,9.50
2017-12-22T14:31:07.384Z,9.50
2017-12-22T14:33:41.202Z,9.40
2017-12-22T14:36:15.658Z,9.50
2017-12-22T14:38:49.480Z,9.50
2017-12-22T14:41:23.302Z,9.50
2017-12-22T14:43:57.153Z,9.50
2017-12-22T14:46:30.935Z,9.50
2017-12-22T14:49:05.813Z,9.40
2017-12-22T14:51:40.532Z,9.40
2017-12-22T14:54:14.141Z,9.40
2017-12-22T14:56:47.976Z,9.40
2017-12-22T14:59:22.507Z,9.40
2017-12-22T15:01:56.305Z,9.40
2017-12-22T15:04:30.056Z,9.40
2017-12-22T15:07:04.688Z,9.40
2017-12-22T15:09:38.660Z,9.40
2017-12-22T15:12:12.504Z,9.50
2017-12-22T15:14:46.948Z,9.50
2017-12-22T15:17:20.800Z,9.50
2017-12-22T15:19:55.416Z,9.50
2017-12-22T15:22:29.412Z,9.50
2017-12-22T15:25:03.117Z,9.50
2017-12-22T15:27:36.957Z,9.50
2017-12-22T15:30:10.814Z,9.50
2017-12-22T15:32:46.505Z,9.50
2017-12-22T15:35:20.910Z,9.40
2017-12-22T15:37:54.805Z,9.40
2017-12-22T15:40:28.631Z,9.40
2017-12-22T15:43:02.539Z,9.30
2017-12-22T15:45:36.401Z,9.30
2017-12-22T15:48:10.961Z,9.20
2017-12-22T15:50:44.768Z,9.10
2017-12-22T15:53:19.487Z,9.10
2017-12-22T15:55:53.395Z,9.10
2017-12-22T15:58:27.882Z,9.10
2017-12-22T16:01:02.028Z,9.10
2017-12-22T16:03:35.754Z,9.10
2017-12-22T16:06:09.656Z,9.00
2017-12-22T16:08:44.233Z,9.00
2017-12-22T16:11:17.885Z,9.00
2017-12-22T16:13:51.680Z,9.00
2017-12-22T16:16:25.524Z,9.00
2017-12-22T16:18:59.597Z,9.00
2017-12-22T16:21:33.424Z,9.00
2017-12-22T16:24:08.043Z,9.10
2017-12-22T16:26:41.777Z,9.00
2017-12-22T16:29:16.440Z,9.00
2017-12-22T16:31:51.769Z,9.00
2017-12-22T16:34:25.484Z,9.00
2017-12-22T16:36:59.984Z,9.00
2017-12-22T16:39:33.809Z,9.00
2017-12-22T16:42:07.492Z,8.90
2017-12-22T16:44:42.076Z,9.00
2017-12-22T16:47:15.865Z,8.90
2017-12-22T16:49:50.388Z,9.00
2017-12-22T16:52:24.173Z,8.90
2017-12-22T16:54:57.904Z,9.00
2017-12-22T16:57:31.744Z,9.00
2017-12-22T17:00:06.205Z,8.90
2017-12-22T17:02:40.002Z,8.90
2017-12-22T17:05:14.662Z,9.00
2017-12-22T17:07:48.668Z,9.00
2017-12-22T17:10:22.456Z,9.00
2017-12-22T17:12:56.196Z,9.00
2017-12-22T17:15:30.333Z,9.00
2017-12-22T17:18:04.135Z,9.00
2017-12-22T17:20:38.252Z,9.00
2017-12-22T17:23:13.019Z,8.90
2017-12-22T17:25:47.594Z,8.90
2017-12-22T17:28:22.123Z,9.00
2017-12-22T17:30:55.940Z,8.90
2017-12-22T17:33:29.840Z,9.00
2017-12-22T17:36:03.641Z,9.00
2017-12-22T17:38:37.338Z,9.00
2017-12-22T17:41:11.078Z,9.00
2017-12-22T17:43:44.651Z,9.00
2017-12-22T17:46:18.436Z,9.00
2017-12-22T17:48:52.192Z,9.00
2017-12-22T17:51:25.926Z,9.10
2017-12-22T17:53:59.849Z,9.00
2017-12-22T17:56:34.425Z,9.10
2017-12-22T17:59:09.889Z,9.10
2017-12-22T18:01:44.474Z,9.10
2017-12-22T18:04:18.136Z,9.00
2017-12-22T18:06:52.743Z,9.10
2017-12-22T18:09:26.466Z,9.10
2017-12-22T18:12:01.080Z,9.10
2017-12-22T18:14:34.831Z,9.10
2017-12-22T18:17:08.635Z,9.10
2017-12-22T18:19:42.340Z,9.10
2017-12-22T18:22:16.891Z,9.10
2017-12-22T18:24:50.760Z,9.00
2017-12-22T18:27:25.532Z,9.10
2017-12-22T18:29:59.235Z,9.10
2017-12-22T18:32:33.088Z,9.10
2017-12-22T18:35:07.719Z,9.20
2017-12-22T18:37:41.794Z,9.20
2017-12-22T18:40:16.404Z,9.20
2017-12-22T18:42:50.189Z,9.20
2017-12-22T18:45:24.011Z,9.20
2017-12-22T18:47:57.810Z,9.20
2017-12-22T18:50:31.604Z,9.20
2017-12-22T18:53:05.495Z,9.20
2017-12-22T18:55:39.385Z,9.20
2017-12-22T18:58:13.117Z,9.20
2017-12-22T19:00:46.951Z,9.20
2017-12-22T19:03:30.603Z,9.10
2017-12-22T19:06:04.432Z,9.10
2017-12-22T19:08:38.039Z,9.10
2017-12-22T19:11:11.705Z,9.10
2017-12-22T19:13:45.580Z,9.10
2017-12-22T19:16:19.260Z,9.10
2017-12-22T19:18:53.046Z,9.20
2017-12-22T19:21:26.682Z,9.20
2017-12-22T19:24:00.543Z,9.20
2017-12-22T19:26:34.345Z,9.20
2017-12-22T19:29:08.261Z,9.20
2017-12-22T19:31:42.096Z,9.20
2017-12-22T19:34:16.752Z,9.20
2017-12-22T19:36:50.781Z,9.10
2017-12-22T19:39:25.441Z,9.20
2017-12-22T19:41:59.232Z,9.20
2017-12-22T19:44:33.054Z,9.20
2017-12-22T19:47:06.952Z,9.20
2017-12-22T19:49:41.551Z,9.20
2017-12-22T19:52:16.176Z,9.10
2017-12-22T19:54:50.165Z,9.10
2017-12-22T19:57:23.980Z,9.10
2017-12-22T19:59:58.003Z,9.10
2017-12-22T20:02:31.870Z,9.10
2017-12-22T20:05:06.543Z,9.10
2017-12-22T20:07:40.360Z,9.00
2017-12-22T20:10:14.164Z,9.10
2017-12-22T20:12:47.967Z,9.10
2017-12-22T20:15:22.377Z,9.10
2017-12-22T20:17:56.126Z,9.10
2017-12-22T20:20:30.810Z,9.00
2017-12-22T20:23:04.721Z,9.00
2017-12-22T20:25:38.515Z,9.00
2017-12-22T20:28:12.374Z,9.00
2017-12-22T20:30:46.173Z,9.00
2017-12-22T20:33:19.924Z,9.00
2017-12-22T20:35:54.191Z,9.00
2017-12-22T20:38:28.783Z,9.10
2017-12-22T20:41:03.458Z,9.10
2017-12-22T20:43:37.716Z,9.10
2017-12-22T20:46:12.259Z,9.10
2017-12-22T20:48:46.109Z,9.00
2017-12-22T20:51:20.390Z,9.10
2017-12-22T20:53:54.151Z,9.10
2017-12-22T20:56:28.442Z,9.10
2017-12-22T20:59:02.409Z,9.20
2017-12-22T21:01:36.535Z,9.20
2017-12-22T21:04:11.130Z,9.20
2017-12-22T21:06:45.052Z,9.20
2017-12-22T21:09:18.955Z,9.20
2017-12-22T21:11:52.873Z,9.30
2017-12-22T21:14:26.899Z,9.30
2017-12-22T21:17:00.742Z,9.30
2017-12-22T21:19:34.518Z,9.30
2017-12-22T21:22:08.320Z,9.30
2017-12-22T21:24:42.314Z,9.30
2017-12-22T21:27:16.624Z,9.30
2017-12-22T21:29:50.442Z,9.40
2017-12-22T21:32:24.325Z,9.30
2017-12-22T21:34:58.190Z,9.30
2017-12-22T21:37:32.176Z,9.30
2017-12-22T21:40:06.041Z,9.30
2017-12-22T21:42:39.801Z,9.20
2017-12-22T21:45:13.648Z,9.30
2017-12-22T21:47:47.464Z,9.30
2017-12-22T21:50:21.391Z,9.30
2017-12-22T21:52:55.330Z,9.30
2017-12-22T21:55:29.088Z,9.30
2017-12-22T21:58:02.968Z,9.30
2017-12-22T22:00:37.519Z,9.20
2017-12-22T22:03:11.243Z,9.20
2017-12-22T22:05:45.100Z,9.20
2017-12-22T22:08:18.860Z,9.10
2017-12-22T22:10:52.851Z,9.10
2017-12-22T22:13:26.772Z,9.10
2017-12-22T22:16:00.670Z,9.10
2017-12-22T22:18:34.564Z,9.20
2017-12-22T22:21:08.315Z,9.10
2017-12-22T22:23:42.196Z,9.10
2017-12-22T22:26:16.062Z,9.00
2017-12-22T22:28:49.875Z,9.10
2017-12-22T22:31:23.888Z,9.10
2017-12-22T22:33:57.865Z,9.10
2017-12-22T22:36:31.643Z,9.10
2017-12-22T22:39:05.544Z,9.10
2017-12-22T22:41:40.294Z,9.10
2017-12-22T22:44:14.895Z,9.10
2017-12-22T22:46:48.749Z,9.10
2017-12-22T22:49:22.481Z,9.10
2017-12-22T22:51:57.154Z,9.10
2017-12-22T22:54:32.498Z,9.00
2017-12-22T22:57:06.355Z,9.00
2017-12-22T22:59:41.012Z,9.00
2017-12-22T23:02:15.746Z,9.10
2017-12-22T23:04:49.473Z,9.00
2017-12-22T23:07:23.236Z,9.10
2017-12-22T23:09:57.075Z,9.10
2017-12-22T23:12:31.848Z,9.10
2017-12-22T23:15:06.500Z,9.10
2017-12-22T23:17:40.355Z,9.10
2017-12-22T23:20:14.092Z,9.10
2017-12-22T23:22:47.918Z,9.20
2017-12-22T23:25:21.842Z,9.10
2017-12-22T23:27:55.701Z,9.10
2017-12-22T23:30:29.641Z,9.20
2017-12-22T23:33:03.440Z,9.20
2017-12-22T23:35:37.922Z,9.10
2017-12-22T23:38:12.136Z,9.10
2017-12-22T23:40:45.915Z,9.10
2017-12-22T23:43:19.811Z,9.10
2017-12-22T23:45:54.436Z,9.10
2017-12-22T23:48:28.237Z,9.00
2017-12-22T23:51:02.077Z,9.10
2017-12-22T23:53:36.058Z,9.10
2017-12-22T23:56:09.950Z,9.00
2017-12-22T23:58:44.537Z,9.00
